Penfield, Georgia
Current Conditions -  °F | °C
As of 9:15 AM on Tuesday 27 Jan 2015 (Local Time) from K3J7 Reporting Station
Overcast Overcast  
Wind Chill: 32°   Ceiling: 6000
Heat Index: 37°   Visibility: 10mi
Dew Point: 36°   Wind: 7mph
Humidity: 93%   Direction: 250°WSW
Pressure: 29.87"   Gusts: NA
Location:  33.6722°N, 83.1249°W
Report Text: K3J7 271415Z AUTO 25006KT 10SM OVC060 03/02 A2987 RMK AO2
Loading
Personal Weather Stations






























Interactive Weather Map New forecast layout! Learn more

10-Day Weather Forecast

Advertisements
Track Severe Weather on mobile